sensor_id;sensor_type;location;lat;lon;timestamp;temperature;humidity
72646;DHT22;60687;53.876;10.674;2023-10-19T00:01:56;8.00;94.30
72646;DHT22;60687;53.876;10.674;2023-10-19T00:11:59;8.00;94.20
72646;DHT22;60687;53.876;10.674;2023-10-19T00:22:05;8.00;94.00
72646;DHT22;60687;53.876;10.674;2023-10-19T00:32:16;8.00;93.70
72646;DHT22;60687;53.876;10.674;2023-10-19T00:42:21;8.00;93.50
72646;DHT22;60687;53.876;10.674;2023-10-19T00:52:27;8.00;93.30
72646;DHT22;60687;53.876;10.674;2023-10-19T01:02:45;8.00;92.90
72646;DHT22;60687;53.876;10.674;2023-10-19T01:12:48;8.00;92.80
72646;DHT22;60687;53.876;10.674;2023-10-19T01:22:54;8.00;92.50
72646;DHT22;60687;53.876;10.674;2023-10-19T01:33:13;7.90;92.30
72646;DHT22;60687;53.876;10.674;2023-10-19T01:43:18;8.00;92.30
72646;DHT22;60687;53.876;10.674;2023-10-19T01:53:22;8.00;92.10
72646;DHT22;60687;53.876;10.674;2023-10-19T02:03:28;8.00;91.90
72646;DHT22;60687;53.876;10.674;2023-10-19T02:13:33;8.00;91.90
72646;DHT22;60687;53.876;10.674;2023-10-19T02:23:38;8.00;91.90
72646;DHT22;60687;53.876;10.674;2023-10-19T02:33:43;8.00;91.90
72646;DHT22;60687;53.876;10.674;2023-10-19T02:43:53;8.00;91.80
72646;DHT22;60687;53.876;10.674;2023-10-19T02:54:08;8.00;91.70
72646;DHT22;60687;53.876;10.674;2023-10-19T03:04:18;8.00;91.70
72646;DHT22;60687;53.876;10.674;2023-10-19T03:14:21;8.00;91.50
72646;DHT22;60687;53.876;10.674;2023-10-19T03:24:27;8.10;91.60
72646;DHT22;60687;53.876;10.674;2023-10-19T03:34:38;8.10;91.70
72646;DHT22;60687;53.876;10.674;2023-10-19T03:44:45;8.10;91.30
72646;DHT22;60687;53.876;10.674;2023-10-19T03:54:52;8.10;91.40
72646;DHT22;60687;53.876;10.674;2023-10-19T04:04:56;8.10;91.30
72646;DHT22;60687;53.876;10.674;2023-10-19T04:14:59;8.20;91.30
72646;DHT22;60687;53.876;10.674;2023-10-19T04:25:11;8.20;91.00
72646;DHT22;60687;53.876;10.674;2023-10-19T04:35:15;8.30;90.70
72646;DHT22;60687;53.876;10.674;2023-10-19T04:45:23;8.30;90.60
72646;DHT22;60687;53.876;10.674;2023-10-19T04:55:26;8.30;90.00
72646;DHT22;60687;53.876;10.674;2023-10-19T05:05:30;8.40;90.40
72646;DHT22;60687;53.876;10.674;2023-10-19T05:15:33;8.40;90.10
72646;DHT22;60687;53.876;10.674;2023-10-19T05:25:37;8.40;90.00
72646;DHT22;60687;53.876;10.674;2023-10-19T05:35:40;8.40;90.20
72646;DHT22;60687;53.876;10.674;2023-10-19T05:45:46;8.40;90.40
72646;DHT22;60687;53.876;10.674;2023-10-19T05:55:51;8.40;91.60
72646;DHT22;60687;53.876;10.674;2023-10-19T06:05:56;8.40;93.60
72646;DHT22;60687;53.876;10.674;2023-10-19T06:15:59;8.30;95.40
72646;DHT22;60687;53.876;10.674;2023-10-19T06:26:10;8.20;96.80
72646;DHT22;60687;53.876;10.674;2023-10-19T06:36:13;8.00;97.60
72646;DHT22;60687;53.876;10.674;2023-10-19T06:46:17;8.00;98.70
72646;DHT22;60687;53.876;10.674;2023-10-19T06:56:20;7.90;99.40
72646;DHT22;60687;53.876;10.674;2023-10-19T07:06:24;7.80;99.90
72646;DHT22;60687;53.876;10.674;2023-10-19T07:16:27;7.80;99.90
72646;DHT22;60687;53.876;10.674;2023-10-19T07:26:32;7.70;99.90
72646;DHT22;60687;53.876;10.674;2023-10-19T07:36:45;7.70;99.90
72646;DHT22;60687;53.876;10.674;2023-10-19T07:46:50;7.60;99.90
72646;DHT22;60687;53.876;10.674;2023-10-19T07:56:52;7.60;99.90
72646;DHT22;60687;53.876;10.674;2023-10-19T08:07:00;7.60;99.90
72646;DHT22;60687;53.876;10.674;2023-10-19T08:17:03;7.70;99.90
72646;DHT22;60687;53.876;10.674;2023-10-19T08:27:08;7.70;99.90
72646;DHT22;60687;53.876;10.674;2023-10-19T08:37:11;7.80;99.90
72646;DHT22;60687;53.876;10.674;2023-10-19T08:47:15;7.80;99.90
72646;DHT22;60687;53.876;10.674;2023-10-19T08:57:18;7.80;99.90
72646;DHT22;60687;53.876;10.674;2023-10-19T09:07:23;7.80;99.90
72646;DHT22;60687;53.876;10.674;2023-10-19T09:17:29;7.90;99.90
72646;DHT22;60687;53.876;10.674;2023-10-19T09:27:34;8.00;99.90
72646;DHT22;60687;53.876;10.674;2023-10-19T09:37:37;8.00;99.90
72646;DHT22;60687;53.876;10.674;2023-10-19T09:47:48;8.10;99.90
72646;DHT22;60687;53.876;10.674;2023-10-19T09:57:55;8.10;99.90
72646;DHT22;60687;53.876;10.674;2023-10-19T10:08:31;8.20;99.90
72646;DHT22;60687;53.876;10.674;2023-10-19T10:18:36;8.20;99.90
72646;DHT22;60687;53.876;10.674;2023-10-19T10:28:41;8.30;99.90
72646;DHT22;60687;53.876;10.674;2023-10-19T10:38:49;8.30;99.90
72646;DHT22;60687;53.876;10.674;2023-10-19T10:48:53;8.40;99.90
72646;DHT22;60687;53.876;10.674;2023-10-19T10:58:55;8.40;99.90
72646;DHT22;60687;53.876;10.674;2023-10-19T11:09:10;8.50;99.90
72646;DHT22;60687;53.876;10.674;2023-10-19T11:19:13;8.50;99.90
72646;DHT22;60687;53.876;10.674;2023-10-19T11:29:16;8.50;99.90
72646;DHT22;60687;53.876;10.674;2023-10-19T11:39:19;8.60;99.90
72646;DHT22;60687;53.876;10.674;2023-10-19T11:49:25;8.60;99.90
72646;DHT22;60687;53.876;10.674;2023-10-19T11:59:28;8.70;99.90
72646;DHT22;60687;53.876;10.674;2023-10-19T12:09:32;8.70;99.90
72646;DHT22;60687;53.876;10.674;2023-10-19T12:19:34;8.80;99.90
72646;DHT22;60687;53.876;10.674;2023-10-19T12:29:41;8.90;99.90
72646;DHT22;60687;53.876;10.674;2023-10-19T12:39:45;8.90;99.90
72646;DHT22;60687;53.876;10.674;2023-10-19T12:49:51;9.00;99.90
72646;DHT22;60687;53.876;10.674;2023-10-19T12:59:53;9.00;99.90
72646;DHT22;60687;53.876;10.674;2023-10-19T13:09:57;9.00;99.90
72646;DHT22;60687;53.876;10.674;2023-10-19T13:20:00;9.00;99.90
72646;DHT22;60687;53.876;10.674;2023-10-19T13:30:19;9.10;99.90
72646;DHT22;60687;53.876;10.674;2023-10-19T13:40:22;9.10;99.90
72646;DHT22;60687;53.876;10.674;2023-10-19T13:50:27;9.10;99.90
72646;DHT22;60687;53.876;10.674;2023-10-19T14:00:30;9.20;99.90
72646;DHT22;60687;53.876;10.674;2023-10-19T14:10:37;9.20;99.90
72646;DHT22;60687;53.876;10.674;2023-10-19T14:20:42;9.20;99.90
72646;DHT22;60687;53.876;10.674;2023-10-19T14:30:47;9.20;99.90
72646;DHT22;60687;53.876;10.674;2023-10-19T14:40:51;9.20;99.90
72646;DHT22;60687;53.876;10.674;2023-10-19T14:50:58;9.20;99.90
72646;DHT22;60687;53.876;10.674;2023-10-19T15:01:02;9.20;99.90
72646;DHT22;60687;53.876;10.674;2023-10-19T15:11:09;9.20;99.90
72646;DHT22;60687;53.876;10.674;2023-10-19T15:21:12;9.20;99.90
72646;DHT22;60687;53.876;10.674;2023-10-19T15:31:17;9.20;99.90
72646;DHT22;60687;53.876;10.674;2023-10-19T15:41:22;9.10;99.90
72646;DHT22;60687;53.876;10.674;2023-10-19T15:51:27;9.10;99.90
72646;DHT22;60687;53.876;10.674;2023-10-19T16:01:31;9.10;99.90
72646;DHT22;60687;53.876;10.674;2023-10-19T16:11:40;9.10;99.90
72646;DHT22;60687;53.876;10.674;2023-10-19T16:21:51;9.00;99.90
72646;DHT22;60687;53.876;10.674;2023-10-19T16:31:55;8.90;99.90
72646;DHT22;60687;53.876;10.674;2023-10-19T16:42:01;8.90;99.90
72646;DHT22;60687;53.876;10.674;2023-10-19T16:52:05;8.80;99.90
72646;DHT22;60687;53.876;10.674;2023-10-19T17:02:08;8.70;99.90
72646;DHT22;60687;53.876;10.674;2023-10-19T17:12:13;8.70;99.90
72646;DHT22;60687;53.876;10.674;2023-10-19T17:22:20;8.60;99.90
72646;DHT22;60687;53.876;10.674;2023-10-19T17:32:24;8.50;99.90
72646;DHT22;60687;53.876;10.674;2023-10-19T17:42:26;8.50;99.90
72646;DHT22;60687;53.876;10.674;2023-10-19T17:52:30;8.50;99.90
72646;DHT22;60687;53.876;10.674;2023-10-19T18:02:33;8.40;99.90
72646;DHT22;60687;53.876;10.674;2023-10-19T18:12:37;8.40;99.90
72646;DHT22;60687;53.876;10.674;2023-10-19T18:22:40;8.40;99.90
72646;DHT22;60687;53.876;10.674;2023-10-19T18:32:44;8.40;99.90
72646;DHT22;60687;53.876;10.674;2023-10-19T18:42:46;8.40;99.90
72646;DHT22;60687;53.876;10.674;2023-10-19T18:52:52;8.50;99.90
72646;DHT22;60687;53.876;10.674;2023-10-19T19:02:55;8.40;99.90
72646;DHT22;60687;53.876;10.674;2023-10-19T19:12:59;8.50;99.90
72646;DHT22;60687;53.876;10.674;2023-10-19T19:23:01;8.50;99.90
72646;DHT22;60687;53.876;10.674;2023-10-19T19:33:09;8.40;99.90
72646;DHT22;60687;53.876;10.674;2023-10-19T19:43:12;8.40;99.90
72646;DHT22;60687;53.876;10.674;2023-10-19T19:53:16;8.40;99.90
72646;DHT22;60687;53.876;10.674;2023-10-19T20:03:19;8.40;99.90
72646;DHT22;60687;53.876;10.674;2023-10-19T20:13:23;8.30;99.90
72646;DHT22;60687;53.876;10.674;2023-10-19T20:23:27;8.30;99.90
72646;DHT22;60687;53.876;10.674;2023-10-19T20:33:30;8.20;99.90
72646;DHT22;60687;53.876;10.674;2023-10-19T20:43:33;8.20;99.90
72646;DHT22;60687;53.876;10.674;2023-10-19T20:53:39;8.20;99.90
72646;DHT22;60687;53.876;10.674;2023-10-19T21:03:44;8.10;99.90
72646;DHT22;60687;53.876;10.674;2023-10-19T21:13:48;8.10;99.90
72646;DHT22;60687;53.876;10.674;2023-10-19T21:23:50;8.10;99.90
72646;DHT22;60687;53.876;10.674;2023-10-19T21:33:56;8.10;99.90
72646;DHT22;60687;53.876;10.674;2023-10-19T21:43:58;8.10;99.90
72646;DHT22;60687;53.876;10.674;2023-10-19T21:54:02;8.00;99.90
72646;DHT22;60687;53.876;10.674;2023-10-19T22:04:06;8.00;99.90
72646;DHT22;60687;53.876;10.674;2023-10-19T22:14:11;8.00;99.90
72646;DHT22;60687;53.876;10.674;2023-10-19T22:24:14;7.90;99.90
72646;DHT22;60687;53.876;10.674;2023-10-19T22:34:19;7.90;99.90
72646;DHT22;60687;53.876;10.674;2023-10-19T22:44:22;7.90;99.90
72646;DHT22;60687;53.876;10.674;2023-10-19T22:54:26;7.90;99.90
72646;DHT22;60687;53.876;10.674;2023-10-19T23:04:28;7.90;99.90
72646;DHT22;60687;53.876;10.674;2023-10-19T23:14:34;7.80;99.90
72646;DHT22;60687;53.876;10.674;2023-10-19T23:24:36;7.80;99.90
72646;DHT22;60687;53.876;10.674;2023-10-19T23:34:40;7.80;99.90
72646;DHT22;60687;53.876;10.674;2023-10-19T23:44:43;7.80;99.90
72646;DHT22;60687;53.876;10.674;2023-10-19T23:54:49;7.70;99.90
